Time;durP1;ratioP1;P1;durP2;ratioP2;P2;SDS_P1;SDS_P2;PMS_P1;PMS_P2;Temp;Humidity;BMP_temperature;BMP_pressure;BME280_temperature;BME280_humidity;BME280_pressure;Samples;Min_cycle;Max_cycle;Signal;HPM_P1;HPM_P2
2022/06/05 00:02:37;;;;;;;12.68;6.45;;;;;;;14.68;98.46;101800.16;5033591;28;20021;-67
2022/06/05 00:05:27;;;;;;;11.65;6.20;;;;;;;14.66;98.57;101797.56;5016078;28;20039;-66
2022/06/05 00:08:04;;;;;;;11.10;6.35;;;;;;;14.62;98.07;101801.28;5016864;28;20024;-66
2022/06/05 00:10:45;;;;;;;12.00;6.72;;;;;;;14.63;98.32;101804.81;5016044;28;20358;-67
2022/06/05 00:13:45;;;;;;;11.85;6.38;;;;;;;14.62;98.35;101811.09;5033514;28;20392;-66
2022/06/05 00:16:13;;;;;;;10.50;6.32;;;;;;;14.61;98.62;101814.69;5033795;28;20033;-67
2022/06/05 00:18:39;;;;;;;12.93;6.30;;;;;;;14.67;97.76;101812.63;5033253;28;20528;-66
2022/06/05 00:21:06;;;;;;;13.65;6.47;;;;;;;14.64;97.93;101812.78;5033749;28;20093;-67
2022/06/05 00:23:31;;;;;;;11.93;6.22;;;;;;;14.63;98.21;101802.16;5033417;28;20068;-67
2022/06/05 00:26:15;;;;;;;10.55;6.22;;;;;;;14.54;98.57;101795.44;5033679;28;20100;-68
2022/06/05 00:28:53;;;;;;;12.05;6.72;;;;;;;14.55;98.52;101805.16;5032880;28;20036;-67
2022/06/05 00:31:37;;;;;;;9.98;6.03;;;;;;;14.57;98.59;101789.97;5033071;28;20038;-66
2022/06/05 00:34:02;;;;;;;12.13;6.30;;;;;;;14.59;98.47;101774.75;5033421;28;20091;-67
2022/06/05 00:37:15;;;;;;;14.70;7.05;;;;;;;14.58;98.66;101784.56;5016706;28;20026;-67
2022/06/05 00:40:00;;;;;;;10.77;6.28;;;;;;;14.58;98.80;101771.25;4991492;28;20050;-66
2022/06/05 00:42:29;;;;;;;13.23;6.30;;;;;;;14.54;98.23;101772.34;4984850;28;20066;-66
2022/06/05 00:44:58;;;;;;;10.82;6.30;;;;;;;14.55;98.53;101773.19;5010829;28;20038;-66
2022/06/05 00:47:30;;;;;;;12.18;6.65;;;;;;;14.51;98.24;101767.13;5033349;28;20100;-67
2022/06/05 00:50:06;;;;;;;13.48;6.75;;;;;;;14.51;98.31;101771.59;5033013;28;20119;-67
2022/06/05 00:52:35;;;;;;;11.80;6.65;;;;;;;14.48;98.59;101769.09;5033139;28;20163;-67
2022/06/05 00:55:00;;;;;;;13.10;6.47;;;;;;;14.48;98.95;101764.63;5033056;28;20041;-67
2022/06/05 00:57:28;;;;;;;15.02;7.10;;;;;;;14.45;98.89;101761.22;5015313;28;20029;-67
2022/06/05 00:59:54;;;;;;;10.18;6.53;;;;;;;14.46;98.95;101763.81;5033042;28;20036;-67
2022/06/05 01:02:20;;;;;;;13.70;7.00;;;;;;;14.47;98.58;101776.22;4999059;28;20022;-66
2022/06/05 01:04:49;;;;;;;12.00;6.75;;;;;;;14.45;99.03;101767.44;5032352;28;20040;-66
2022/06/05 01:07:15;;;;;;;10.95;6.63;;;;;;;14.47;99.56;101764.69;5032600;28;20083;-66
2022/06/05 01:09:44;;;;;;;11.45;6.85;;;;;;;14.45;98.96;101764.78;4998524;28;20538;-67
2022/06/05 01:12:30;;;;;;;11.52;7.03;;;;;;;14.39;99.21;101755.25;5032210;28;20108;-67
2022/06/05 01:15:05;;;;;;;12.05;6.80;;;;;;;14.44;99.31;101749.72;5032420;28;20506;-67
2022/06/05 01:17:39;;;;;;;12.15;6.82;;;;;;;14.50;99.15;101754.75;5032572;28;20033;-67
2022/06/05 01:20:42;;;;;;;12.82;6.70;;;;;;;14.50;98.44;101759.22;5032680;28;20546;-67
2022/06/05 01:23:10;;;;;;;11.07;6.65;;;;;;;14.51;98.31;101782.28;5012946;28;20041;-67
2022/06/05 01:25:36;;;;;;;12.20;6.85;;;;;;;14.45;98.87;101796.75;5016974;28;20082;-67
2022/06/05 01:28:09;;;;;;;11.93;6.82;;;;;;;14.50;99.15;101832.06;5032389;28;20025;-67
2022/06/05 01:30:47;;;;;;;12.60;5.90;;;;;;;14.63;98.67;101852.78;5032510;28;20350;-67
2022/06/05 01:33:25;;;;;;;10.45;6.70;;;;;;;14.67;98.40;101857.97;5014570;28;20038;-68
2022/06/05 01:36:02;;;;;;;13.60;6.90;;;;;;;14.71;98.17;101856.03;5014749;28;20116;-67
2022/06/05 01:38:41;;;;;;;9.55;6.15;;;;;;;14.74;97.56;101858.53;5032238;28;20026;-68
2022/06/05 01:41:35;;;;;;;10.20;6.60;;;;;;;14.80;97.77;101865.41;5032131;28;20416;-66
2022/06/05 01:44:05;;;;;;;9.98;6.13;;;;;;;14.80;97.41;101847.59;5031941;28;20496;-65
2022/06/05 01:46:34;;;;;;;12.50;6.50;;;;;;;14.85;97.39;101839.38;5014216;28;20029;-67
2022/06/05 01:49:09;;;;;;;12.90;6.90;;;;;;;14.73;97.84;101843.47;5032155;28;20072;-66
2022/06/05 01:51:45;;;;;;;13.20;6.85;;;;;;;14.74;98.54;101848.75;5031788;28;20076;-67
2022/06/05 01:54:20;;;;;;;13.30;6.63;;;;;;;14.74;97.28;101837.22;5031460;28;20533;-67
2022/06/05 01:56:52;;;;;;;12.43;6.72;;;;;;;14.67;97.64;101831.31;5015059;28;20025;-67
2022/06/05 01:59:42;;;;;;;9.75;6.20;;;;;;;14.69;98.63;101833.88;5031923;28;20516;-67
2022/06/05 02:02:13;;;;;;;9.50;6.47;;;;;;;14.70;98.05;101823.16;5032073;28;20028;-67
2022/06/05 02:05:01;;;;;;;12.00;6.60;;;;;;;14.70;98.59;101823.16;5031396;28;20057;-67
2022/06/05 02:07:33;;;;;;;10.55;6.50;;;;;;;14.57;100.00;101816.63;5032031;28;20477;-67
2022/06/05 02:10:02;;;;;;;10.82;6.97;;;;;;;14.40;100.00;101799.63;5031690;28;20022;-67
2022/06/05 02:12:28;;;;;;;12.43;7.18;;;;;;;14.24;100.00;101791.44;5031736;28;20473;-67
2022/06/05 02:14:55;;;;;;;11.75;7.30;;;;;;;14.10;100.00;101788.53;5031294;28;20039;-68
2022/06/05 02:17:21;;;;;;;14.48;7.53;;;;;;;14.00;100.00;101789.88;5031675;28;20413;-69
2022/06/05 02:19:46;;;;;;;16.20;8.40;;;;;;;13.88;100.00;101767.34;5031611;28;20032;-68
2022/06/05 02:22:29;;;;;;;12.77;7.60;;;;;;;13.82;100.00;101780.91;5031756;28;20057;-68
2022/06/05 02:24:55;;;;;;;13.27;8.35;;;;;;;13.76;100.00;101763.41;5031403;28;20061;-68
2022/06/05 02:27:23;;;;;;;12.65;7.75;;;;;;;13.72;100.00;101775.09;5031833;28;20029;-68
2022/06/05 02:29:50;;;;;;;14.57;8.57;;;;;;;13.69;100.00;101765.44;5031570;28;20543;-67
2022/06/05 02:32:28;;;;;;;11.55;7.88;;;;;;;13.65;100.00;101752.38;5031648;28;20033;-69
2022/06/05 02:35:10;;;;;;;13.32;8.02;;;;;;;13.52;100.00;101749.38;5014285;28;20388;-71
2022/06/05 02:38:04;;;;;;;15.13;8.27;;;;;;;13.42;100.00;101751.53;5031892;28;20025;-69
2022/06/05 02:41:03;;;;;;;14.45;8.57;;;;;;;13.36;100.00;101735.81;5031345;28;20037;-69
2022/06/05 02:43:37;;;;;;;13.15;8.77;;;;;;;13.32;100.00;101727.09;5031629;28;20037;-68
2022/06/05 02:46:37;;;;;;;14.68;9.30;;;;;;;13.31;100.00;101714.69;5030890;28;20056;-68
2022/06/05 02:49:22;;;;;;;16.17;9.32;;;;;;;13.22;100.00;101707.13;4998945;28;20033;-69
2022/06/05 02:51:48;;;;;;;13.30;8.45;;;;;;;13.17;100.00;101690.50;5031575;28;20110;-69
2022/06/05 02:54:20;;;;;;;14.15;8.93;;;;;;;13.08;100.00;101687.31;5013859;28;20120;-69
2022/06/05 02:56:45;;;;;;;17.00;10.05;;;;;;;13.01;100.00;101671.66;5030815;28;20030;-68
2022/06/05 02:59:10;;;;;;;17.15;9.32;;;;;;;12.97;100.00;101676.25;5031390;28;20041;-68
2022/06/05 03:04:19;;;;;;;14.50;9.15;;;;;;;12.91;100.00;101661.41;5035533;28;20117;-70
2022/06/05 03:06:46;;;;;;;14.75;9.45;;;;;;;12.85;100.00;101663.44;5034654;28;20037;-68
2022/06/05 03:09:12;;;;;;;15.50;10.10;;;;;;;12.84;100.00;101651.09;5035114;28;20037;-69
2022/06/05 03:11:37;;;;;;;19.65;10.05;;;;;;;12.80;100.00;101637.09;5017453;28;20386;-69
2022/06/05 03:14:03;;;;;;;18.88;10.88;;;;;;;12.75;100.00;101636.41;5034914;28;20061;-69
2022/06/05 03:16:28;;;;;;;18.25;10.43;;;;;;;12.70;100.00;101631.28;5034273;28;20108;-70
2022/06/05 03:18:54;;;;;;;16.80;9.65;;;;;;;12.71;100.00;101608.22;5034810;28;20037;-69
2022/06/05 03:21:20;;;;;;;18.77;10.55;;;;;;;12.67;100.00;101617.25;5035099;28;20025;-68
2022/06/05 03:23:45;;;;;;;19.73;10.75;;;;;;;12.68;100.00;101608.34;5017173;28;20029;-70
2022/06/05 03:26:12;;;;;;;16.70;10.50;;;;;;;12.74;100.00;101610.75;5034649;28;20028;-68
2022/06/05 03:28:38;;;;;;;17.13;10.50;;;;;;;12.72;100.00;101601.97;5016740;28;20377;-69
2022/06/05 03:31:08;;;;;;;16.33;10.48;;;;;;;12.72;100.00;101604.63;5016878;28;20032;-69
2022/06/05 03:33:34;;;;;;;18.40;10.38;;;;;;;12.65;100.00;101604.03;5034695;28;20035;-69
2022/06/05 03:36:00;;;;;;;19.98;11.00;;;;;;;12.61;100.00;101602.44;5034791;28;20532;-69
2022/06/05 03:38:26;;;;;;;18.70;10.45;;;;;;;12.58;100.00;101582.16;5034290;28;20108;-69
2022/06/05 03:40:51;;;;;;;19.45;10.43;;;;;;;12.58;100.00;101586.59;5016736;28;20579;-69
2022/06/05 03:43:17;;;;;;;17.45;10.18;;;;;;;12.56;100.00;101591.97;5034558;28;20551;-69
2022/06/05 03:45:42;;;;;;;19.00;10.90;;;;;;;12.58;100.00;101586.59;5034559;28;20033;-70
2022/06/05 03:48:08;;;;;;;18.40;10.95;;;;;;;12.53;100.00;101573.53;5033978;28;20021;-70
2022/06/05 03:50:37;;;;;;;17.80;10.77;;;;;;;12.56;100.00;101573.38;5034374;28;20116;-70
2022/06/05 03:53:02;;;;;;;17.98;11.15;;;;;;;12.52;100.00;101558.50;5016695;28;20029;-69
2022/06/05 03:55:28;;;;;;;19.10;11.27;;;;;;;12.53;100.00;101565.56;5034577;28;20380;-70
2022/06/05 03:57:53;;;;;;;18.85;10.55;;;;;;;12.55;100.00;101565.47;5016295;28;20037;-70
2022/06/05 04:00:20;;;;;;;16.55;10.85;;;;;;;12.56;100.00;101570.72;5033596;28;20589;-70
2022/06/05 04:02:47;;;;;;;18.35;10.82;;;;;;;12.56;100.00;101573.38;5034025;28;20500;-70
2022/06/05 04:05:15;;;;;;;18.02;11.45;;;;;;;12.55;100.00;101578.75;5034190;28;20025;-70
2022/06/05 04:07:40;;;;;;;18.38;11.85;;;;;;;12.48;100.00;101575.50;5033764;28;20366;-69
2022/06/05 04:10:07;;;;;;;18.80;10.90;;;;;;;12.43;100.00;101575.69;5033561;28;20053;-69
2022/06/05 04:12:32;;;;;;;17.05;10.82;;;;;;;12.45;100.00;101579.16;5014856;28;20059;-69
2022/06/05 04:15:00;;;;;;;15.98;11.02;;;;;;;12.46;100.00;101577.34;5016376;28;20028;-70
2022/06/05 04:17:25;;;;;;;19.35;10.95;;;;;;;12.42;100.00;101573.09;5034105;28;20071;-69
2022/06/05 04:19:52;;;;;;;20.50;11.70;;;;;;;12.35;100.00;101556.53;5032909;28;20033;-70
2022/06/05 04:22:18;;;;;;;18.73;11.07;;;;;;;12.27;100.00;101564.78;5033738;28;20040;-70
2022/06/05 04:24:43;;;;;;;19.92;10.93;;;;;;;12.24;100.00;101577.38;5033609;28;20033;-70
2022/06/05 04:27:08;;;;;;;18.65;11.40;;;;;;;12.21;100.00;101567.72;5033758;28;20030;-70
2022/06/05 04:29:33;;;;;;;17.83;10.98;;;;;;;12.19;100.00;101566.91;5032192;28;20037;-69
2022/06/05 04:31:59;;;;;;;19.33;11.10;;;;;;;12.16;100.00;101567.03;5031303;28;20061;-69
2022/06/05 04:34:25;;;;;;;21.23;11.77;;;;;;;12.16;100.00;101567.03;5031975;28;20041;-69
2022/06/05 04:36:50;;;;;;;17.92;10.85;;;;;;;12.13;100.00;101572.47;5032431;28;20025;-68
2022/06/05 04:39:16;;;;;;;19.52;11.63;;;;;;;12.17;100.00;101567.91;5032645;28;20040;-68
2022/06/05 04:41:42;;;;;;;21.38;12.13;;;;;;;12.13;100.00;101561.84;5014698;28;20057;-69
2022/06/05 04:44:11;;;;;;;22.92;12.25;;;;;;;12.11;100.00;101561.91;5033429;28;20030;-69
2022/06/05 04:46:37;;;;;;;21.15;11.85;;;;;;;12.10;100.00;101556.66;5015630;28;20099;-69
2022/06/05 04:49:06;;;;;;;24.33;13.15;;;;;;;12.13;100.00;101564.50;5033069;28;20034;-69
2022/06/05 04:51:31;;;;;;;21.10;12.50;;;;;;;12.16;100.00;101539.63;5032726;28;20037;-69
2022/06/05 04:53:57;;;;;;;21.73;12.60;;;;;;;12.16;100.00;101537.84;5031454;28;20029;-69
2022/06/05 04:56:24;;;;;;;19.80;11.90;;;;;;;12.17;100.00;101533.38;5032395;28;20483;-69
2022/06/05 04:58:50;;;;;;;20.92;12.57;;;;;;;12.21;100.00;101534.97;5015419;28;20029;-69
2022/06/05 05:01:21;;;;;;;20.35;12.02;;;;;;;12.23;100.00;101528.69;5032960;28;20047;-69
2022/06/05 05:03:47;;;;;;;20.45;11.85;;;;;;;12.20;100.00;101541.22;5034028;28;20029;-69
2022/06/05 05:06:13;;;;;;;22.98;12.25;;;;;;;12.22;100.00;101540.22;5021041;28;20087;-69
2022/06/05 05:08:38;;;;;;;24.88;11.85;;;;;;;12.23;100.00;101531.34;5033039;28;20047;-69
2022/06/05 05:11:04;;;;;;;19.88;12.65;;;;;;;12.26;100.00;101544.50;5032288;28;20125;-69
2022/06/05 05:13:29;;;;;;;21.52;12.15;;;;;;;12.33;100.00;101542.47;5032621;28;20116;-70
2022/06/05 05:15:58;;;;;;;21.10;12.02;;;;;;;12.34;100.00;101544.19;5032785;28;20029;-69
2022/06/05 05:18:24;;;;;;;20.55;11.75;;;;;;;12.38;100.00;101543.13;5032408;28;20034;-70
2022/06/05 05:20:50;;;;;;;19.42;12.63;;;;;;;12.40;100.00;101530.63;5031817;28;20036;-70
2022/06/05 05:23:16;;;;;;;24.33;13.20;;;;;;;12.44;100.00;101515.44;5031971;28;20408;-69
2022/06/05 05:25:41;;;;;;;19.90;11.85;;;;;;;12.48;100.00;101510.88;5032111;28;20029;-69
2022/06/05 05:28:07;;;;;;;20.23;12.27;;;;;;;12.41;100.00;101511.13;5031250;28;20025;-68
2022/06/05 05:30:33;;;;;;;21.52;12.07;;;;;;;12.43;100.00;101529.69;5031716;28;20033;-68
2022/06/05 05:32:59;;;;;;;24.42;13.07;;;;;;;12.42;100.00;101507.53;5014802;28;20037;-69
2022/06/05 05:35:24;;;;;;;22.92;12.27;;;;;;;12.48;100.00;101516.19;5029456;28;20037;-69
2022/06/05 05:37:50;;;;;;;21.52;12.10;;;;;;;12.55;100.00;101509.69;5031532;28;20048;-68
2022/06/05 05:42:59;;;;;;;21.58;13.00;;;;;;;12.60;100.00;101505.03;5030021;28;20127;-69
2022/06/05 05:45:24;;;;;;;19.77;12.50;;;;;;;12.67;100.00;101530.41;5032013;28;20061;-69
2022/06/05 05:47:50;;;;;;;23.27;12.50;;;;;;;12.77;100.00;101522.91;5031366;28;20041;-69
2022/06/05 05:50:16;;;;;;;17.15;11.77;;;;;;;12.76;100.00;101530.03;5031714;28;20091;-69
2022/06/05 05:52:43;;;;;;;22.20;12.52;;;;;;;12.80;100.00;101538.75;5047251;28;20507;-69
2022/06/05 05:55:18;;;;;;;19.23;11.77;;;;;;;12.88;100.00;101531.28;5031848;28;20025;-69
2022/06/05 05:57:45;;;;;;;18.90;12.10;;;;;;;12.93;100.00;101533.75;5034620;28;20108;-68
2022/06/05 06:00:14;;;;;;;20.30;11.52;;;;;;;12.97;100.00;101529.13;5037923;28;20480;-69
2022/06/05 06:02:39;;;;;;;19.75;11.95;;;;;;;13.00;100.00;101526.38;5031901;28;20405;-68
2022/06/05 06:05:07;;;;;;;23.33;13.55;;;;;;;12.98;100.00;101531.75;5014046;28;20036;-68
2022/06/05 06:07:32;;;;;;;20.38;12.40;;;;;;;13.00;100.00;101523.72;5031014;28;20047;-69
2022/06/05 06:09:58;;;;;;;19.73;11.82;;;;;;;12.99;100.00;101520.16;5042953;28;20033;-69
2022/06/05 06:12:24;;;;;;;19.23;12.55;;;;;;;13.02;100.00;101513.84;5031406;28;20452;-68
2022/06/05 06:14:50;;;;;;;19.17;11.77;;;;;;;13.03;100.00;101513.81;5031395;28;20034;-68
2022/06/05 06:17:15;;;;;;;18.65;11.82;;;;;;;12.97;100.00;101516.72;5030141;28;20041;-69
2022/06/05 06:19:40;;;;;;;21.73;12.07;;;;;;;13.01;100.00;101507.69;4996950;28;20036;-69
2022/06/05 06:22:06;;;;;;;18.98;12.38;;;;;;;12.97;100.00;101523.81;5031740;28;20021;-69
2022/06/05 06:24:31;;;;;;;20.77;12.00;;;;;;;12.97;100.00;101523.81;5031679;28;20029;-69
2022/06/05 06:26:57;;;;;;;21.23;12.10;;;;;;;12.97;100.00;101522.06;5013027;28;20025;-70
2022/06/05 06:29:22;;;;;;;21.75;12.40;;;;;;;12.98;100.00;101523.78;5030061;28;20041;-70
2022/06/05 06:31:48;;;;;;;21.55;11.95;;;;;;;12.99;100.00;101522.81;5030967;28;20033;-69
2022/06/05 06:34:13;;;;;;;19.35;12.63;;;;;;;13.02;100.00;101505.88;5031739;28;20034;-69
2022/06/05 06:36:38;;;;;;;19.52;12.10;;;;;;;13.06;100.00;101513.66;5034784;28;20465;-70
2022/06/05 06:39:04;;;;;;;19.40;12.38;;;;;;;13.00;100.00;101515.72;5033964;28;20511;-70
2022/06/05 06:41:30;;;;;;;21.05;13.13;;;;;;;13.03;100.00;101524.44;5035169;28;20053;-70
2022/06/05 06:43:55;;;;;;;20.48;13.07;;;;;;;13.08;100.00;101516.25;5035085;28;20033;-69
2022/06/05 06:46:20;;;;;;;24.13;12.75;;;;;;;13.11;100.00;101521.44;5011922;28;20047;-70
2022/06/05 06:48:46;;;;;;;23.45;13.48;;;;;;;13.08;100.00;101519.78;5030488;28;20431;-70
2022/06/05 06:51:13;;;;;;;20.88;13.00;;;;;;;13.09;100.00;101510.00;5037581;28;20029;-70
2022/06/05 06:53:39;;;;;;;21.77;12.65;;;;;;;13.16;100.00;101507.91;5039891;28;20030;-69
2022/06/05 06:56:09;;;;;;;21.13;12.35;;;;;;;13.21;100.00;101498.81;5034963;28;20039;-69
2022/06/05 06:58:34;;;;;;;22.83;13.20;;;;;;;13.26;100.00;101494.16;5034070;28;20313;-70
2022/06/05 07:01:00;;;;;;;21.23;12.68;;;;;;;13.31;100.00;101490.41;5023744;28;20473;-67
2022/06/05 07:03:25;;;;;;;22.40;13.13;;;;;;;13.28;100.00;101488.75;5038805;28;20037;-69
2022/06/05 07:05:51;;;;;;;21.73;12.82;;;;;;;13.35;100.00;101484.88;5034575;28;20108;-69
2022/06/05 07:08:16;;;;;;;21.67;13.07;;;;;;;13.44;100.00;101465.88;5033787;28;20112;-69
2022/06/05 07:10:41;;;;;;;18.70;12.32;;;;;;;13.49;100.00;101476.31;5033230;28;20097;-69
2022/06/05 07:13:07;;;;;;;21.50;13.43;;;;;;;13.66;100.00;101461.31;5034225;28;20075;-68
2022/06/05 07:15:35;;;;;;;19.58;12.93;;;;;;;13.74;100.00;101456.50;5034300;28;20444;-70
2022/06/05 07:18:04;;;;;;;16.77;12.13;;;;;;;13.89;100.00;101444.25;5034589;28;20032;-69
2022/06/05 07:20:33;;;;;;;16.55;11.82;;;;;;;14.01;100.00;101451.59;5034454;28;20025;-70
2022/06/05 07:22:58;;;;;;;18.85;12.50;;;;;;;14.00;100.00;101436.59;5016000;28;20100;-70
2022/06/05 07:25:24;;;;;;;19.55;12.50;;;;;;;14.03;100.00;101444.41;5016436;28;20100;-70
2022/06/05 07:27:49;;;;;;;19.17;12.02;;;;;;;14.09;100.00;101445.91;5033713;28;20172;-70
2022/06/05 07:30:14;;;;;;;18.30;11.90;;;;;;;14.01;100.00;101437.44;5033581;28;20084;-70
2022/06/05 07:32:40;;;;;;;19.13;11.68;;;;;;;14.07;100.00;101431.81;5015559;28;20033;-70
2022/06/05 07:35:05;;;;;;;16.85;11.05;;;;;;;14.17;100.00;101432.19;5009845;28;20036;-70
2022/06/05 07:37:33;;;;;;;17.55;11.60;;;;;;;14.33;100.00;101435.81;5032894;28;20112;-70
2022/06/05 07:39:58;;;;;;;16.52;12.07;;;;;;;14.47;100.00;101419.13;5033925;28;20065;-70
2022/06/05 07:42:24;;;;;;;17.63;11.90;;;;;;;14.70;100.00;101417.09;5033678;28;20057;-70
2022/06/05 07:44:49;;;;;;;15.73;11.70;;;;;;;14.85;100.00;101420.75;5031443;28;20034;-68
2022/06/05 07:47:14;;;;;;;18.20;11.70;;;;;;;15.07;100.00;101407.94;5033139;28;20064;-68
2022/06/05 07:49:40;;;;;;;16.33;11.63;;;;;;;15.29;100.00;101405.91;5016125;28;20087;-68
2022/06/05 07:54:51;;;;;;;15.77;11.50;;;;;;;15.54;100.00;101406.25;5033937;28;20043;-68
2022/06/05 07:57:19;;;;;;;16.70;11.40;;;;;;;15.54;100.00;101405.41;5028033;28;20058;-69
2022/06/05 07:59:47;;;;;;;16.45;11.48;;;;;;;15.71;100.00;101407.09;5026587;28;20068;-69
2022/06/05 08:02:24;;;;;;;15.13;11.10;;;;;;;15.79;100.00;101391.47;5032100;28;20068;-69
2022/06/05 08:04:51;;;;;;;17.00;11.60;;;;;;;16.07;100.00;101400.59;5032116;28;20104;-68
2022/06/05 08:07:20;;;;;;;17.73;12.10;;;;;;;16.24;100.00;101391.59;5031943;28;20055;-70
2022/06/05 08:09:45;;;;;;;14.73;10.70;;;;;;;16.28;100.00;101376.22;5025968;28;20021;-70
2022/06/05 08:12:13;;;;;;;15.60;11.75;;;;;;;16.23;100.00;101371.16;5031988;28;20041;-70
2022/06/05 08:14:40;;;;;;;15.93;11.27;;;;;;;16.31;100.00;101373.38;5032862;28;20021;-70
2022/06/05 08:17:09;;;;;;;19.08;11.27;;;;;;;16.22;100.00;101370.28;5032903;28;20033;-70
2022/06/05 08:19:36;;;;;;;14.35;10.88;;;;;;;16.40;100.00;101369.28;5033372;28;20040;-69
2022/06/05 08:22:02;;;;;;;16.65;11.50;;;;;;;16.64;100.00;101367.75;5033674;28;20037;-69
2022/06/05 08:24:28;;;;;;;13.70;10.48;;;;;;;17.00;100.00;101376.28;5015445;28;20389;-70
2022/06/05 08:26:53;;;;;;;14.75;11.15;;;;;;;17.16;100.00;101386.84;5015215;28;20546;-69
2022/06/05 08:29:20;;;;;;;17.20;10.60;;;;;;;17.45;100.00;101368.91;5015034;28;20084;-69
2022/06/05 08:31:45;;;;;;;15.43;10.65;;;;;;;17.79;100.00;101376.56;5014889;28;20037;-68
2022/06/05 08:34:12;;;;;;;15.23;10.90;;;;;;;18.10;97.76;101375.34;5021754;28;20028;-68
2022/06/05 08:36:38;;;;;;;15.30;10.88;;;;;;;18.45;99.32;101382.81;5032846;28;20034;-69
2022/06/05 08:41:48;;;;;;;13.82;10.20;;;;;;;19.73;92.11;101383.50;5033156;28;20570;-69
2022/06/05 08:44:27;;;;;;;14.25;9.73;;;;;;;20.07;88.04;101383.63;5033080;28;20053;-68
2022/06/05 08:46:58;;;;;;;15.55;10.00;;;;;;;20.72;86.82;101384.03;5029736;28;20480;-68
2022/06/05 08:49:35;;;;;;;12.30;10.00;;;;;;;21.43;81.90;101388.22;5033106;28;20029;-67
2022/06/05 08:52:17;;;;;;;13.30;9.75;;;;;;;21.33;81.96;101389.97;5031982;28;20036;-69
2022/06/05 08:55:04;;;;;;;11.63;9.57;;;;;;;21.32;82.08;101381.06;5032483;28;20025;-67
2022/06/05 08:57:37;;;;;;;14.43;10.27;;;;;;;21.64;77.88;101388.34;5031689;28;20512;-67
2022/06/05 09:00:20;;;;;;;14.52;9.77;;;;;;;21.77;77.97;101375.53;5042512;28;20495;-68
2022/06/05 09:03:00;;;;;;;13.25;10.07;;;;;;;22.19;80.27;101382.81;5030572;28;20069;-68
2022/06/05 09:05:35;;;;;;;13.85;10.80;;;;;;;22.34;80.40;101380.66;5020298;28;20048;-68
2022/06/05 09:08:15;;;;;;;13.65;9.60;;;;;;;22.24;76.54;101393.22;5032311;28;20057;-68
2022/06/05 09:11:03;;;;;;;14.65;10.27;;;;;;;22.45;78.41;101405.88;5031937;28;20040;-69
2022/06/05 09:13:42;;;;;;;14.48;10.52;;;;;;;22.61;79.14;101408.94;5031629;28;20025;-68
2022/06/05 09:16:23;;;;;;;14.38;10.55;;;;;;;22.89;77.42;101404.69;5031509;28;20029;-68
2022/06/05 09:18:49;;;;;;;17.13;10.68;;;;;;;22.59;78.93;101392.88;5033401;28;20029;-68
2022/06/05 09:21:25;;;;;;;16.05;11.13;;;;;;;22.27;76.08;101399.19;5032115;28;20026;-66
2022/06/05 09:24:18;;;;;;;17.08;10.80;;;;;;;22.15;78.13;101392.16;5031568;28;20080;-67
2022/06/05 09:26:48;;;;;;;13.43;11.18;;;;;;;22.14;78.88;101395.00;5014126;28;20056;-66
2022/06/05 09:29:16;;;;;;;14.57;11.10;;;;;;;22.47;80.01;101393.97;5027486;28;20033;-69
2022/06/05 09:31:47;;;;;;;14.35;10.63;;;;;;;22.61;77.92;101405.38;5031409;28;20038;-68
2022/06/05 09:34:17;;;;;;;13.05;10.93;;;;;;;22.67;76.70;101394.91;5028856;28;20038;-67
2022/06/05 09:36:53;;;;;;;14.50;11.43;;;;;;;22.60;77.45;101388.34;5030082;28;20693;-67
2022/06/05 09:39:32;;;;;;;12.70;10.60;;;;;;;22.61;76.75;101397.28;5034031;28;20032;-67
2022/06/05 09:42:26;;;;;;;14.55;11.07;;;;;;;22.40;81.37;101385.53;5015217;28;20431;-67
2022/06/05 09:45:36;;;;;;;14.82;11.15;;;;;;;21.76;81.91;101381.06;5009194;28;20092;-67
2022/06/05 09:48:24;;;;;;;15.55;11.25;;;;;;;21.75;80.44;101382.03;4976100;28;20045;-68
2022/06/05 09:50:51;;;;;;;13.52;11.40;;;;;;;21.51;81.33;101377.69;5022893;28;20109;-67
2022/06/05 09:53:42;;;;;;;14.38;11.20;;;;;;;21.74;81.06;101380.31;5022569;28;20029;-67
2022/06/05 09:56:31;;;;;;;15.48;12.50;;;;;;;21.35;82.09;101379.94;5022318;28;20116;-65
2022/06/05 09:59:17;;;;;;;14.07;11.55;;;;;;;21.21;82.67;101376.53;5018327;28;20040;-66
2022/06/05 10:01:49;;;;;;;16.05;12.55;;;;;;;20.96;85.80;101377.69;5031019;28;20049;-66
2022/06/05 10:04:14;;;;;;;17.20;13.13;;;;;;;20.87;84.43;101368.50;5031744;28;20025;-67
2022/06/05 10:06:50;;;;;;;18.23;12.48;;;;;;;20.63;84.96;101374.81;5013701;28;20043;-66
2022/06/05 10:09:19;;;;;;;14.43;11.82;;;;;;;20.78;85.86;101370.09;5012777;28;20112;-68
2022/06/05 10:11:48;;;;;;;14.73;12.40;;;;;;;21.05;86.31;101371.53;5023135;28;20112;-67
2022/06/05 10:14:18;;;;;;;16.08;12.75;;;;;;;20.98;85.05;101361.41;5011803;28;20029;-67
2022/06/05 10:16:50;;;;;;;14.90;12.23;;;;;;;20.93;84.73;101364.44;5033247;28;20086;-67
2022/06/05 10:19:29;;;;;;;13.57;11.95;;;;;;;20.92;85.02;101363.59;5025762;28;20504;-67
2022/06/05 10:22:34;;;;;;;18.75;15.10;;;;;;;20.88;86.20;101356.75;5018461;28;20025;-67
2022/06/05 10:25:35;;;;;;;18.98;12.20;;;;;;;21.02;84.94;101360.16;5005782;28;20112;-67
2022/06/05 10:28:22;;;;;;;14.90;12.02;;;;;;;20.90;86.27;101348.56;5030255;28;20056;-68
2022/06/05 10:31:08;;;;;;;15.45;11.13;;;;;;;21.11;85.50;101351.31;5021518;28;20040;-67
2022/06/05 10:33:42;;;;;;;16.17;12.18;;;;;;;21.12;87.23;101344.97;5027431;28;20388;-66
2022/06/05 10:36:18;;;;;;;15.75;12.32;;;;;;;21.06;87.35;101340.94;5030882;28;20385;-67
2022/06/05 10:39:10;;;;;;;17.02;11.73;;;;;;;21.02;86.33;101335.94;5030295;28;20473;-67
2022/06/05 10:41:52;;;;;;;17.25;12.43;;;;;;;20.76;86.23;101328.97;5012935;28;20070;-67
2022/06/05 10:44:25;;;;;;;15.98;12.77;;;;;;;20.72;86.60;101319.44;5027308;28;20095;-67
2022/06/05 10:47:15;;;;;;;15.45;12.70;;;;;;;20.54;86.28;101319.06;5020942;28;20033;-67
2022/06/05 10:50:04;;;;;;;17.27;12.10;;;;;;;20.36;88.53;101317.81;5029934;28;20034;-67
2022/06/05 10:52:34;;;;;;;17.52;12.13;;;;;;;20.44;87.67;101332.38;5005082;28;20037;-67
2022/06/05 10:55:34;;;;;;;15.50;11.50;;;;;;;20.41;87.11;101321.00;5031861;28;20033;-66
2022/06/05 10:58:20;;;;;;;16.90;12.20;;;;;;;20.13;88.08;101329.41;5030220;28;20029;-67
2022/06/05 11:00:57;;;;;;;15.70;11.23;;;;;;;20.05;88.93;101318.41;5015725;28;20030;-67
2022/06/05 11:04:05;;;;;;;18.02;12.10;;;;;;;19.82;89.29;101328.22;5029585;28;20112;-67
2022/06/05 11:06:42;;;;;;;14.77;11.32;;;;;;;19.91;91.40;101318.59;4976402;28;20037;-68
2022/06/05 11:09:18;;;;;;;22.45;12.50;;;;;;;19.86;88.55;101323.47;5036314;28;20068;-67
2022/06/05 11:14:39;;;;;;;;;;;;;;;19.63;90.99;101323.38;5031471;28;20032;-67
2022/06/05 11:17:22;;;;;;;18.10;11.85;;;;;;;19.59;90.98;101311.13;5029962;28;19917;-67
2022/06/05 11:20:06;;;;;;;19.73;11.80;;;;;;;19.78;90.89;101318.63;5023620;28;20099;-67
2022/06/05 11:22:37;;;;;;;17.40;12.13;;;;;;;19.57;90.50;101307.72;5030256;28;20072;-68
2022/06/05 11:25:18;;;;;;;16.13;12.48;;;;;;;19.39;91.10;101305.44;5034340;28;20112;-66
2022/06/05 11:28:09;;;;;;;21.00;11.73;;;;;;;19.59;92.26;101305.75;5029330;28;20458;-67
2022/06/05 11:30:43;;;;;;;17.70;12.40;;;;;;;19.69;91.67;101295.16;5031130;28;20045;-67
2022/06/05 11:33:20;;;;;;;16.85;12.90;;;;;;;19.48;91.01;101298.50;5042613;28;20088;-68
2022/06/05 11:36:28;;;;;;;17.88;13.32;;;;;;;19.40;92.24;101299.09;5028265;28;20052;-68
2022/06/05 11:39:20;;;;;;;17.95;12.98;;;;;;;19.42;92.61;101302.50;5027664;28;20484;-67
2022/06/05 11:42:00;;;;;;;16.30;11.77;;;;;;;19.47;94.12;101299.47;5037338;28;20040;-67
2022/06/05 11:44:45;;;;;;;16.95;12.82;;;;;;;19.63;93.06;101299.19;5033926;28;20425;-68